Terminal Aerodrome Forecast
Issued by NWS

Home | Current Version | Previous Version | Text Only | Print | Product List | Glossary On
Versions: 1 2 3 4 5 6 7 8 9 10 11 12 13 14 15 16 17 18 19
000
FTUS43 KILX 172329
TAFDEC
TAF
KDEC 172329Z 1800/1824 VRB03KT P6SM BKN250
     FM180600 VRB03KT 4SM BR BKN250
     FM181200 15006KT P6SM BKN250
     FM181800 13010G15KT P6SM SCT150 BKN200=

USA.gov is the U.S. government's official web portal to all federal, state and local government web resources and services.